createdAt,value
2018-12-24T16:24:53.160Z,89.43
2018-12-24T16:25:54.025Z,89.49
2018-12-24T16:26:54.416Z,90.03
2018-12-24T16:27:54.712Z,90.63
2018-12-24T16:28:55.107Z,90.90
2018-12-24T16:29:55.423Z,90.56
2018-12-24T16:30:55.708Z,90.04
2018-12-24T16:31:56.023Z,89.77
2018-12-24T16:32:56.395Z,89.91
2018-12-24T16:33:57.087Z,89.31
2018-12-24T16:34:57.964Z,88.87
2018-12-24T16:35:58.312Z,89.54
2018-12-24T16:36:58.613Z,87.65
2018-12-24T16:37:58.896Z,87.40
2018-12-24T16:38:59.291Z,87.68
2018-12-24T16:39:59.587Z,87.98
2018-12-24T16:40:59.924Z,88.34
2018-12-24T16:42:00.121Z,87.95
2018-12-24T16:43:00.354Z,89.04
2018-12-24T16:44:00.752Z,88.41
2018-12-24T16:44:59.918Z,88.18
2018-12-24T16:46:00.697Z,87.71
2018-12-24T16:47:02.024Z,87.67
2018-12-24T16:48:01.072Z,88.07
2018-12-24T16:49:02.442Z,87.54
2018-12-24T16:50:02.813Z,87.67
2018-12-24T16:51:03.415Z,87.59
2018-12-24T16:52:03.237Z,87.77
2018-12-24T16:53:04.797Z,87.63
2018-12-24T16:54:05.143Z,87.76
2018-12-24T16:55:05.631Z,88.11
2018-12-24T16:56:06.331Z,88.21
2018-12-24T16:57:06.692Z,87.93
2018-12-24T16:58:07.033Z,88.08
2018-12-24T16:59:07.411Z,88.28
2018-12-24T17:00:07.774Z,88.13
2018-12-24T17:01:08.685Z,87.99
2018-12-24T17:02:09.065Z,88.01
2018-12-24T17:03:09.407Z,88.32
2018-12-24T17:04:09.825Z,88.50
2018-12-24T17:05:10.352Z,89.08
2018-12-24T17:06:10.732Z,88.97
2018-12-24T17:07:11.153Z,89.81
2018-12-24T17:08:11.538Z,89.87
2018-12-24T17:09:11.877Z,89.40
2018-12-24T17:09:20.217Z,89.80
2018-12-24T17:10:21.574Z,89.83
2018-12-24T17:11:21.877Z,90.05
2018-12-24T17:12:22.512Z,90.32
2018-12-24T17:13:22.860Z,90.54
2018-12-24T17:14:23.219Z,90.10
2018-12-24T17:15:23.692Z,90.68
2018-12-24T17:16:24.146Z,90.92
2018-12-24T17:17:24.528Z,90.57
2018-12-24T17:18:24.919Z,90.55
2018-12-24T17:19:24.178Z,90.69
2018-12-24T17:20:25.636Z,91.21
2018-12-24T17:21:25.990Z,90.84
2018-12-24T17:22:25.356Z,90.82
2018-12-24T17:23:26.895Z,91.04
2018-12-24T17:24:27.253Z,91.53
2018-12-24T17:25:27.581Z,91.35
2018-12-24T17:26:28.147Z,91.51
2018-12-24T17:27:28.799Z,91.24
2018-12-24T17:28:29.149Z,90.81
2018-12-24T17:29:29.529Z,91.26
2018-12-24T17:30:29.912Z,91.49
2018-12-24T17:31:30.390Z,91.57
2018-12-24T17:32:30.751Z,91.61
2018-12-24T17:33:31.038Z,91.74
2018-12-24T17:34:31.367Z,92.49
2018-12-24T17:35:31.726Z,92.68
2018-12-24T17:36:32.242Z,92.43
2018-12-24T17:37:32.833Z,92.25
2018-12-24T17:38:33.221Z,92.57
2018-12-24T17:39:33.545Z,92.58
2018-12-24T17:40:34.003Z,92.51
2018-12-24T17:41:34.502Z,92.57
2018-12-24T17:42:34.796Z,92.43
2018-12-24T17:43:35.203Z,92.66
2018-12-24T17:44:35.515Z,92.95
2018-12-24T17:45:35.898Z,92.88
2018-12-24T17:46:36.280Z,92.48
2018-12-24T17:47:36.601Z,91.68
2018-12-24T17:48:36.972Z,92.31
2018-12-24T17:49:37.249Z,92.59
2018-12-24T17:50:37.767Z,92.43
2018-12-24T17:51:38.620Z,92.98
2018-12-24T17:52:38.947Z,93.93
2018-12-24T17:53:39.298Z,93.71
2018-12-24T17:54:39.591Z,93.10
2018-12-24T17:55:40.195Z,93.59
2018-12-24T17:55:48.539Z,93.64
2018-12-24T17:56:49.917Z,93.58
2018-12-24T17:57:50.307Z,93.38
2018-12-24T17:58:50.601Z,93.33
2018-12-24T17:59:51.056Z,93.40
2018-12-24T18:00:50.504Z,93.50
2018-12-24T18:01:51.919Z,94.00
2018-12-24T18:02:52.298Z,93.87
2018-12-24T18:03:52.723Z,93.05
2018-12-24T18:04:52.112Z,93.50
2018-12-24T18:05:53.563Z,93.25
2018-12-24T18:06:54.103Z,93.03
2018-12-24T18:07:54.460Z,92.88
2018-12-24T18:08:54.725Z,92.41
2018-12-24T18:09:55.103Z,92.26
2018-12-24T18:10:55.570Z,92.40
2018-12-24T18:11:55.976Z,92.78
2018-12-24T18:12:56.641Z,93.04
2018-12-24T18:13:57.014Z,92.75
2018-12-24T18:14:57.439Z,92.73
2018-12-24T18:15:57.206Z,92.75
2018-12-24T18:16:57.845Z,92.36
2018-12-24T18:17:59.239Z,92.95
2018-12-24T18:18:59.632Z,93.22
2018-12-24T18:20:00.005Z,93.65
2018-12-24T18:20:59.528Z,93.90
2018-12-24T18:22:00.904Z,93.16
2018-12-24T18:23:01.360Z,92.93
2018-12-24T18:24:01.722Z,92.77
2018-12-24T18:25:02.139Z,92.27
2018-12-24T18:26:02.543Z,92.59
2018-12-24T18:27:03.011Z,92.21
2018-12-24T18:28:03.343Z,92.79
2018-12-24T18:29:03.764Z,92.93
2018-12-24T18:30:04.253Z,92.95
2018-12-24T18:31:04.552Z,93.04
2018-12-24T18:32:04.791Z,93.12
2018-12-24T18:33:05.655Z,93.24
2018-12-24T18:34:06.091Z,93.27
2018-12-24T18:35:06.410Z,93.14
2018-12-24T18:36:06.945Z,93.28
2018-12-24T18:37:07.296Z,93.23
2018-12-24T18:38:07.358Z,93.23
2018-12-24T18:39:07.681Z,93.02
2018-12-24T18:40:08.658Z,92.88
2018-12-24T18:41:09.223Z,92.95
2018-12-24T18:42:09.388Z,93.09
2018-12-24T18:43:09.685Z,93.29
2018-12-24T18:43:18.169Z,93.63
2018-12-24T18:44:19.639Z,93.65
2018-12-24T18:45:19.974Z,93.70
2018-12-24T18:46:20.263Z,93.59
2018-12-24T18:47:20.528Z,93.06
2018-12-24T18:48:21.194Z,92.61
2018-12-24T18:49:21.526Z,92.34
2018-12-24T18:50:21.883Z,92.70
2018-12-24T18:51:22.261Z,92.54
2018-12-24T18:52:22.536Z,92.95
2018-12-24T18:53:22.800Z,93.00
2018-12-24T18:54:23.126Z,92.76
2018-12-24T18:55:23.351Z,93.38
2018-12-24T18:56:25.181Z,93.44
2018-12-24T18:57:24.522Z,93.97
2018-12-24T18:58:24.846Z,94.24
2018-12-24T18:59:25.272Z,94.42
2018-12-24T19:00:25.850Z,94.46
2018-12-24T19:01:26.294Z,94.48
2018-12-24T19:02:26.959Z,94.32
2018-12-24T19:03:27.299Z,94.33
2018-12-24T19:04:27.946Z,94.15
2018-12-24T19:05:28.492Z,94.11
2018-12-24T19:06:28.994Z,94.02
2018-12-24T19:07:29.367Z,94.04
2018-12-24T19:08:29.867Z,94.02
2018-12-24T19:09:30.394Z,94.17
2018-12-24T19:10:30.789Z,94.37
2018-12-24T19:11:31.068Z,94.30
2018-12-24T19:12:31.495Z,93.97
2018-12-24T19:13:31.809Z,94.13
2018-12-24T19:14:32.161Z,94.22
2018-12-24T19:15:32.469Z,94.24
2018-12-24T19:16:32.926Z,94.30
2018-12-24T19:17:41.279Z,94.45
2018-12-24T19:18:32.706Z,94.37
2018-12-24T19:19:34.111Z,94.51
2018-12-24T19:20:34.489Z,95.01
2018-12-24T19:21:34.805Z,94.90
2018-12-24T19:22:35.246Z,94.64
2018-12-24T19:23:35.670Z,94.77
2018-12-24T19:24:36.473Z,94.73
2018-12-24T19:25:36.874Z,94.55
2018-12-24T19:26:37.186Z,94.23
2018-12-24T19:27:38.611Z,94.21
2018-12-24T19:27:46.794Z,94.24
2018-12-24T19:28:47.022Z,94.23
2018-12-24T19:29:48.379Z,94.46
2018-12-24T19:30:48.773Z,94.65
2018-12-24T19:31:49.140Z,94.59
2018-12-24T19:32:49.461Z,94.72
2018-12-24T19:33:49.884Z,94.75
2018-12-24T19:34:50.359Z,95.31
2018-12-24T19:35:50.753Z,95.70
2018-12-24T19:36:51.219Z,95.95
2018-12-24T19:37:51.831Z,95.70
2018-12-24T19:38:52.421Z,96.11
2018-12-24T19:39:52.837Z,95.81
2018-12-24T19:40:53.168Z,96.01
2018-12-24T19:41:53.501Z,96.16
2018-12-24T19:42:53.826Z,95.87
2018-12-24T19:43:54.334Z,95.62
2018-12-24T19:44:54.778Z,95.71
2018-12-24T19:45:55.094Z,95.35
2018-12-24T19:46:55.502Z,95.51
2018-12-24T19:47:55.883Z,95.47
2018-12-24T19:48:56.195Z,95.45
2018-12-24T19:49:56.614Z,95.31
2018-12-24T19:50:56.968Z,95.28
2018-12-24T19:51:57.295Z,95.58
2018-12-24T19:52:57.645Z,95.04
2018-12-24T19:53:58.069Z,95.56
2018-12-24T19:54:58.711Z,95.60
2018-12-24T19:55:59.064Z,95.41
2018-12-24T19:56:59.354Z,95.72
2018-12-24T19:57:59.795Z,96.07
2018-12-24T19:59:00.107Z,95.73
2018-12-24T20:00:00.576Z,96.04
2018-12-24T20:01:00.121Z,96.45
2018-12-24T20:02:00.509Z,96.47
2018-12-24T20:03:02.157Z,96.15
2018-12-24T20:04:02.501Z,96.71
2018-12-24T20:05:03.045Z,96.90
2018-12-24T20:06:03.424Z,97.10
2018-12-24T20:07:04.042Z,96.77
2018-12-24T20:08:04.509Z,96.60
2018-12-24T20:09:04.941Z,96.62
2018-12-24T20:10:05.620Z,96.23
2018-12-24T20:11:06.019Z,96.65
2018-12-24T20:12:06.424Z,96.51
2018-12-24T20:13:06.958Z,96.31
2018-12-24T20:13:15.338Z,95.81
2018-12-24T20:14:16.702Z,95.78
2018-12-24T20:15:17.094Z,96.12
2018-12-24T20:16:17.402Z,96.02
2018-12-24T20:17:17.817Z,95.87
2018-12-24T20:18:18.238Z,96.11
2018-12-24T20:19:18.546Z,95.99
2018-12-24T20:20:18.988Z,96.26
2018-12-24T20:21:19.493Z,96.50
2018-12-24T20:22:19.939Z,96.38
2018-12-24T20:23:20.320Z,96.76
2018-12-24T20:24:20.714Z,96.64
2018-12-24T20:25:21.029Z,96.46
2018-12-24T20:26:21.645Z,96.58
2018-12-24T20:27:22.077Z,96.38
2018-12-24T20:28:22.612Z,96.33
2018-12-24T20:29:22.898Z,96.17
2018-12-24T20:30:23.282Z,96.11
2018-12-24T20:31:23.921Z,96.00
2018-12-24T20:32:24.278Z,95.80
2018-12-24T20:33:24.572Z,95.57
2018-12-24T20:34:24.880Z,95.43
2018-12-24T20:35:24.172Z,95.80
2018-12-24T20:36:25.434Z,96.05
2018-12-24T20:37:25.744Z,96.06
2018-12-24T20:38:26.313Z,95.92
2018-12-24T20:39:26.659Z,95.62
2018-12-24T20:40:27.007Z,95.71
2018-12-24T20:41:27.522Z,95.43
2018-12-24T20:42:27.989Z,95.47
2018-12-24T20:43:28.333Z,96.26
2018-12-24T20:44:28.991Z,96.15
2018-12-24T20:45:29.283Z,96.53
2018-12-24T20:46:29.631Z,96.94
2018-12-24T20:47:29.970Z,96.95
2018-12-24T20:48:31.442Z,97.13
2018-12-24T20:49:30.837Z,97.04
2018-12-24T20:50:31.177Z,97.11
2018-12-24T20:51:31.491Z,97.08
2018-12-24T20:52:31.941Z,97.25
2018-12-24T20:53:32.323Z,97.18
2018-12-24T20:54:32.657Z,97.04
2018-12-24T20:55:33.006Z,97.16
2018-12-24T20:56:33.480Z,97.28
2018-12-24T20:57:33.848Z,97.47
2018-12-24T20:57:42.185Z,97.89
2018-12-24T20:58:43.719Z,97.90
2018-12-24T20:59:44.226Z,97.66
2018-12-24T21:00:44.596Z,97.83
2018-12-24T21:01:45.066Z,98.18
2018-12-24T21:02:45.521Z,98.10
2018-12-24T21:03:46.166Z,98.14
2018-12-24T21:04:46.613Z,98.24
2018-12-24T21:05:46.973Z,98.09
2018-12-24T21:06:47.559Z,98.27
2018-12-24T21:07:48.214Z,97.84
2018-12-24T21:08:48.708Z,97.80
2018-12-24T21:09:49.111Z,97.64
2018-12-24T21:10:49.559Z,97.52
2018-12-24T21:11:50.011Z,97.26
2018-12-24T21:12:50.391Z,97.10
2018-12-24T21:13:50.710Z,97.05
2018-12-24T21:14:51.023Z,96.84
2018-12-24T21:15:51.360Z,97.03
2018-12-24T21:16:51.676Z,96.94
2018-12-24T21:17:52.036Z,97.02
2018-12-24T21:18:52.389Z,97.03
2018-12-24T21:19:52.743Z,97.40
2018-12-24T21:20:53.162Z,96.96
2018-12-24T21:21:53.630Z,97.07
2018-12-24T21:22:54.100Z,97.08
2018-12-24T21:23:54.721Z,97.16
2018-12-24T21:24:55.494Z,97.30
2018-12-24T21:25:55.968Z,97.77
2018-12-24T21:26:56.500Z,97.70
2018-12-24T21:27:56.965Z,97.74
2018-12-24T21:28:57.348Z,97.38
2018-12-24T21:29:57.762Z,97.56
2018-12-24T21:30:58.320Z,97.93
2018-12-24T21:31:58.796Z,98.06
2018-12-24T21:32:59.220Z,97.95
2018-12-24T21:33:59.640Z,97.79
2018-12-24T21:35:00.160Z,97.91
2018-12-24T21:35:59.690Z,98.17
2018-12-24T21:37:01.123Z,98.27
2018-12-24T21:38:01.427Z,98.38
2018-12-24T21:39:01.755Z,98.19
2018-12-24T21:40:02.259Z,97.93
2018-12-24T21:41:01.517Z,98.18
2018-12-24T21:42:03.006Z,98.28
2018-12-24T21:42:12.175Z,98.08
2018-12-24T21:43:12.614Z,98.07
2018-12-24T21:44:13.186Z,97.80
2018-12-24T21:45:13.528Z,97.78
2018-12-24T21:46:13.930Z,98.14
2018-12-24T21:47:14.281Z,98.07
2018-12-24T21:48:14.630Z,97.94
2018-12-24T21:49:14.940Z,98.10
2018-12-24T21:50:15.287Z,97.56
2018-12-24T21:51:16.078Z,98.26
2018-12-24T21:52:16.596Z,98.31
2018-12-24T21:53:17.005Z,98.58
2018-12-24T21:54:18.998Z,98.55
2018-12-24T21:55:18.331Z,98.23
2018-12-24T21:56:18.679Z,98.37
2018-12-24T21:57:19.167Z,98.38
2018-12-24T21:58:19.637Z,98.29
2018-12-24T21:59:20.351Z,98.31
2018-12-24T22:00:20.735Z,98.03
2018-12-24T22:01:21.371Z,98.80
2018-12-24T22:02:21.683Z,99.25
2018-12-24T22:03:22.297Z,99.35
2018-12-24T22:04:23.095Z,99.13
2018-12-24T22:05:23.677Z,98.91
2018-12-24T22:06:24.050Z,98.22
2018-12-24T22:07:24.655Z,97.39
2018-12-24T22:08:24.975Z,97.26
2018-12-24T22:09:25.410Z,97.25
2018-12-24T22:10:25.824Z,97.43
2018-12-24T22:11:26.421Z,97.70
2018-12-24T22:12:26.803Z,97.24
2018-12-24T22:13:27.194Z,96.62
2018-12-24T22:14:27.522Z,96.90
2018-12-24T22:15:27.838Z,96.93
2018-12-24T22:16:28.276Z,97.43
2018-12-24T22:17:28.678Z,97.66
2018-12-24T22:18:32.333Z,97.75
2018-12-24T22:19:28.535Z,97.59
2018-12-24T22:20:28.873Z,97.63
2018-12-24T22:21:30.450Z,97.78
2018-12-24T22:22:31.966Z,97.82
2018-12-24T22:23:31.375Z,97.53
2018-12-24T22:24:31.947Z,97.79
2018-12-24T22:25:32.437Z,97.60
2018-12-24T22:26:33.206Z,97.13
2018-12-24T22:27:32.686Z,96.77
2018-12-24T22:28:33.252Z,96.25
2018-12-24T22:29:33.725Z,95.77
2018-12-24T22:30:35.282Z,95.65
2018-12-24T22:30:43.690Z,95.90
2018-12-24T22:31:45.053Z,95.93
2018-12-24T22:32:45.552Z,96.09
2018-12-24T22:33:44.845Z,96.33
2018-12-24T22:34:46.450Z,96.20
2018-12-24T22:35:46.899Z,96.53
2018-12-24T22:36:47.277Z,96.78
2018-12-24T22:37:48.016Z,96.59
2018-12-24T22:38:47.052Z,96.39
2018-12-24T22:39:48.494Z,96.43
2018-12-24T22:40:48.829Z,96.62
2018-12-24T22:41:49.517Z,96.94
2018-12-24T22:42:49.872Z,96.87
2018-12-24T22:43:50.232Z,96.61
2018-12-24T22:44:50.926Z,96.67
2018-12-24T22:45:51.400Z,96.71
2018-12-24T22:46:51.742Z,96.91
2018-12-24T22:47:52.118Z,96.99
2018-12-24T22:48:52.610Z,97.45
2018-12-24T22:49:53.129Z,97.58
2018-12-24T22:50:53.489Z,97.66
2018-12-24T22:51:54.062Z,97.22
2018-12-24T22:52:54.341Z,97.22
2018-12-24T22:53:54.709Z,96.82
2018-12-24T22:54:54.349Z,97.08
2018-12-24T22:55:55.687Z,97.49
2018-12-24T22:56:56.011Z,97.45
2018-12-24T22:57:56.436Z,97.19
2018-12-24T22:58:56.937Z,97.22
2018-12-24T22:59:57.312Z,97.57
2018-12-24T23:00:57.640Z,97.69
2018-12-24T23:01:58.216Z,97.76
2018-12-24T23:02:58.546Z,97.42
2018-12-24T23:03:59.005Z,97.11
2018-12-24T23:05:00.339Z,96.83
2018-12-24T23:05:59.836Z,97.02
2018-12-24T23:07:00.248Z,97.08
2018-12-24T23:08:00.546Z,97.15
2018-12-24T23:09:00.908Z,96.83
2018-12-24T23:10:01.332Z,96.66
2018-12-24T23:11:02.114Z,96.48
2018-12-24T23:12:02.620Z,96.62
2018-12-24T23:13:02.946Z,96.53
2018-12-24T23:14:03.260Z,96.37
2018-12-24T23:15:03.920Z,96.65
2018-12-24T23:16:04.472Z,96.74
2018-12-24T23:17:04.734Z,97.10
2018-12-24T23:18:05.061Z,97.18
2018-12-24T23:18:13.111Z,97.49
2018-12-24T23:19:14.429Z,97.47
2018-12-24T23:20:14.981Z,97.56
2018-12-24T23:21:15.288Z,97.44
2018-12-24T23:22:16.088Z,97.53
2018-12-24T23:23:16.469Z,97.61
2018-12-24T23:24:16.932Z,97.62
2018-12-24T23:25:17.258Z,97.65
2018-12-24T23:26:17.633Z,97.57
2018-12-24T23:27:18.260Z,97.45
2018-12-24T23:28:18.689Z,97.44
2018-12-24T23:29:19.079Z,97.50
2018-12-24T23:30:19.453Z,97.50
2018-12-24T23:31:19.883Z,97.15
2018-12-24T23:32:20.211Z,97.56
2018-12-24T23:33:20.494Z,97.88
2018-12-24T23:34:20.813Z,98.77
2018-12-24T23:35:21.200Z,98.67
2018-12-24T23:36:21.514Z,98.88
2018-12-24T23:37:22.254Z,99.35
2018-12-24T23:38:22.693Z,99.35
2018-12-24T23:39:23.000Z,99.22
2018-12-24T23:40:23.024Z,99.12
2018-12-24T23:41:23.355Z,99.28
2018-12-24T23:42:23.807Z,99.11
2018-12-24T23:43:24.207Z,99.29
2018-12-24T23:44:24.564Z,99.43
2018-12-24T23:45:25.080Z,99.31
2018-12-24T23:46:25.420Z,99.35
2018-12-24T23:47:25.774Z,99.32
2018-12-24T23:48:26.170Z,99.97
2018-12-24T23:49:26.497Z,99.99
2018-12-24T23:50:26.822Z,100.34
2018-12-24T23:51:27.400Z,100.30
2018-12-24T23:52:27.888Z,100.71
2018-12-24T23:53:28.582Z,100.60
2018-12-24T23:54:28.948Z,100.35
2018-12-24T23:55:29.325Z,100.58
2018-12-24T23:56:29.670Z,100.68
2018-12-24T23:57:29.991Z,100.57
2018-12-24T23:58:30.372Z,100.31
2018-12-24T23:59:30.913Z,99.98
